sensor_id;sensor_type;location;lat;lon;timestamp;P1;durP1;ratioP1;P2;durP2;ratioP2
23449;SDS011;11897;45.438;12.128;2023-02-23T00:00:56;37.73;;;13.37;;
23449;SDS011;11897;45.438;12.128;2023-02-23T00:03:22;32.57;;;12.83;;
23449;SDS011;11897;45.438;12.128;2023-02-23T00:05:49;32.57;;;13.10;;
23449;SDS011;11897;45.438;12.128;2023-02-23T00:08:16;32.10;;;13.83;;
23449;SDS011;11897;45.438;12.128;2023-02-23T00:10:44;37.00;;;14.23;;
23449;SDS011;11897;45.438;12.128;2023-02-23T00:13:11;39.27;;;14.80;;
23449;SDS011;11897;45.438;12.128;2023-02-23T00:15:39;41.57;;;15.77;;
23449;SDS011;11897;45.438;12.128;2023-02-23T00:18:05;36.97;;;13.13;;
23449;SDS011;11897;45.438;12.128;2023-02-23T00:20:33;39.33;;;13.50;;
23449;SDS011;11897;45.438;12.128;2023-02-23T00:22:59;36.73;;;13.43;;
23449;SDS011;11897;45.438;12.128;2023-02-23T00:25:26;43.23;;;15.17;;
23449;SDS011;11897;45.438;12.128;2023-02-23T00:27:55;50.37;;;15.63;;
23449;SDS011;11897;45.438;12.128;2023-02-23T00:30:21;37.67;;;14.27;;
23449;SDS011;11897;45.438;12.128;2023-02-23T00:32:50;33.10;;;13.83;;
23449;SDS011;11897;45.438;12.128;2023-02-23T00:35:17;38.10;;;13.20;;
23449;SDS011;11897;45.438;12.128;2023-02-23T00:37:44;43.77;;;14.87;;
23449;SDS011;11897;45.438;12.128;2023-02-23T00:40:12;38.47;;;13.57;;
23449;SDS011;11897;45.438;12.128;2023-02-23T00:42:41;41.27;;;14.27;;
23449;SDS011;11897;45.438;12.128;2023-02-23T00:45:08;45.37;;;15.83;;
23449;SDS011;11897;45.438;12.128;2023-02-23T00:47:36;35.17;;;13.27;;
23449;SDS011;11897;45.438;12.128;2023-02-23T00:50:05;32.10;;;13.03;;
23449;SDS011;11897;45.438;12.128;2023-02-23T00:52:32;35.30;;;14.10;;
23449;SDS011;11897;45.438;12.128;2023-02-23T00:55:01;36.37;;;13.60;;
23449;SDS011;11897;45.438;12.128;2023-02-23T00:57:28;37.97;;;13.17;;
23449;SDS011;11897;45.438;12.128;2023-02-23T00:59:54;30.37;;;12.07;;
23449;SDS011;11897;45.438;12.128;2023-02-23T01:02:23;39.53;;;14.23;;
23449;SDS011;11897;45.438;12.128;2023-02-23T01:04:54;39.07;;;12.83;;
23449;SDS011;11897;45.438;12.128;2023-02-23T01:07:24;44.47;;;13.57;;
23449;SDS011;11897;45.438;12.128;2023-02-23T01:09:51;39.47;;;13.93;;
23449;SDS011;11897;45.438;12.128;2023-02-23T01:12:18;37.73;;;14.37;;
23449;SDS011;11897;45.438;12.128;2023-02-23T01:14:44;37.00;;;15.17;;
23449;SDS011;11897;45.438;12.128;2023-02-23T01:17:11;33.70;;;13.90;;
23449;SDS011;11897;45.438;12.128;2023-02-23T01:19:38;33.97;;;14.00;;
23449;SDS011;11897;45.438;12.128;2023-02-23T01:22:05;36.90;;;13.70;;
23449;SDS011;11897;45.438;12.128;2023-02-23T01:24:33;46.00;;;15.23;;
23449;SDS011;11897;45.438;12.128;2023-02-23T01:27:02;37.03;;;13.37;;
23449;SDS011;11897;45.438;12.128;2023-02-23T01:29:29;38.30;;;14.03;;
23449;SDS011;11897;45.438;12.128;2023-02-23T01:31:56;38.23;;;15.23;;
23449;SDS011;11897;45.438;12.128;2023-02-23T01:34:23;29.93;;;13.57;;
23449;SDS011;11897;45.438;12.128;2023-02-23T01:36:49;32.53;;;13.27;;
23449;SDS011;11897;45.438;12.128;2023-02-23T01:39:17;43.60;;;15.53;;
23449;SDS011;11897;45.438;12.128;2023-02-23T01:41:45;40.43;;;16.43;;
23449;SDS011;11897;45.438;12.128;2023-02-23T01:46:59;44.83;;;15.27;;
23449;SDS011;11897;45.438;12.128;2023-02-23T01:49:27;33.23;;;12.70;;
23449;SDS011;11897;45.438;12.128;2023-02-23T01:51:56;45.23;;;16.43;;
23449;SDS011;11897;45.438;12.128;2023-02-23T01:54:24;42.70;;;15.03;;
23449;SDS011;11897;45.438;12.128;2023-02-23T01:56:55;43.53;;;15.63;;
23449;SDS011;11897;45.438;12.128;2023-02-23T01:59:23;33.50;;;12.90;;
23449;SDS011;11897;45.438;12.128;2023-02-23T02:01:54;44.47;;;15.90;;
23449;SDS011;11897;45.438;12.128;2023-02-23T02:04:21;38.47;;;14.17;;
23449;SDS011;11897;45.438;12.128;2023-02-23T02:06:50;41.07;;;14.10;;
23449;SDS011;11897;45.438;12.128;2023-02-23T02:09:18;36.60;;;15.03;;
23449;SDS011;11897;45.438;12.128;2023-02-23T02:11:50;35.67;;;13.37;;
23449;SDS011;11897;45.438;12.128;2023-02-23T02:14:23;39.57;;;14.30;;
23449;SDS011;11897;45.438;12.128;2023-02-23T02:22:24;38.00;;;14.47;;
23449;SDS011;11897;45.438;12.128;2023-02-23T02:25:02;37.80;;;15.60;;
23449;SDS011;11897;45.438;12.128;2023-02-23T02:27:50;47.87;;;14.60;;
23449;SDS011;11897;45.438;12.128;2023-02-23T02:33:12;40.70;;;14.67;;
23449;SDS011;11897;45.438;12.128;2023-02-23T02:36:09;34.13;;;13.33;;
23449;SDS011;11897;45.438;12.128;2023-02-23T02:38:47;50.53;;;16.00;;
23449;SDS011;11897;45.438;12.128;2023-02-23T02:41:19;44.23;;;13.17;;
23449;SDS011;11897;45.438;12.128;2023-02-23T02:43:49;42.47;;;13.53;;
23449;SDS011;11897;45.438;12.128;2023-02-23T02:46:19;41.63;;;15.27;;
23449;SDS011;11897;45.438;12.128;2023-02-23T02:48:47;39.37;;;13.33;;
23449;SDS011;11897;45.438;12.128;2023-02-23T02:51:18;38.00;;;13.87;;
23449;SDS011;11897;45.438;12.128;2023-02-23T02:53:49;37.33;;;13.13;;
23449;SDS011;11897;45.438;12.128;2023-02-23T02:56:18;37.97;;;14.27;;
23449;SDS011;11897;45.438;12.128;2023-02-23T02:58:46;39.17;;;13.93;;
23449;SDS011;11897;45.438;12.128;2023-02-23T03:01:16;46.97;;;15.27;;
23449;SDS011;11897;45.438;12.128;2023-02-23T03:04:01;39.73;;;13.63;;
23449;SDS011;11897;45.438;12.128;2023-02-23T03:06:47;41.87;;;15.03;;
23449;SDS011;11897;45.438;12.128;2023-02-23T03:09:38;40.63;;;14.23;;
23449;SDS011;11897;45.438;12.128;2023-02-23T03:12:30;41.37;;;14.93;;
23449;SDS011;11897;45.438;12.128;2023-02-23T03:15:23;46.20;;;14.33;;
23449;SDS011;11897;45.438;12.128;2023-02-23T03:18:16;42.20;;;14.07;;
23449;SDS011;11897;45.438;12.128;2023-02-23T03:21:03;34.90;;;15.20;;
23449;SDS011;11897;45.438;12.128;2023-02-23T03:23:52;44.67;;;14.47;;
23449;SDS011;11897;45.438;12.128;2023-02-23T03:26:44;46.33;;;15.47;;
23449;SDS011;11897;45.438;12.128;2023-02-23T03:29:31;32.87;;;14.27;;
23449;SDS011;11897;45.438;12.128;2023-02-23T03:32:21;37.00;;;13.97;;
23449;SDS011;11897;45.438;12.128;2023-02-23T03:35:08;37.10;;;12.97;;
23449;SDS011;11897;45.438;12.128;2023-02-23T03:38:00;39.63;;;13.27;;
23449;SDS011;11897;45.438;12.128;2023-02-23T03:40:46;45.40;;;15.23;;
23449;SDS011;11897;45.438;12.128;2023-02-23T03:43:34;43.33;;;14.40;;
23449;SDS011;11897;45.438;12.128;2023-02-23T03:46:19;44.27;;;13.83;;
23449;SDS011;11897;45.438;12.128;2023-02-23T03:49:05;37.13;;;14.00;;
23449;SDS011;11897;45.438;12.128;2023-02-23T03:51:50;42.90;;;13.40;;
23449;SDS011;11897;45.438;12.128;2023-02-23T03:54:38;49.13;;;13.30;;
23449;SDS011;11897;45.438;12.128;2023-02-23T03:57:23;44.43;;;13.80;;
23449;SDS011;11897;45.438;12.128;2023-02-23T04:00:10;35.40;;;12.63;;
23449;SDS011;11897;45.438;12.128;2023-02-23T04:02:55;42.90;;;13.47;;
23449;SDS011;11897;45.438;12.128;2023-02-23T04:05:41;38.13;;;13.50;;
23449;SDS011;11897;45.438;12.128;2023-02-23T04:08:27;42.10;;;15.13;;
23449;SDS011;11897;45.438;12.128;2023-02-23T04:11:13;40.37;;;13.30;;
23449;SDS011;11897;45.438;12.128;2023-02-23T04:13:59;42.70;;;14.13;;
23449;SDS011;11897;45.438;12.128;2023-02-23T04:16:26;37.80;;;13.50;;
23449;SDS011;11897;45.438;12.128;2023-02-23T04:18:53;46.70;;;16.27;;
23449;SDS011;11897;45.438;12.128;2023-02-23T04:21:20;36.37;;;14.23;;
23449;SDS011;11897;45.438;12.128;2023-02-23T04:23:46;33.40;;;14.10;;
23449;SDS011;11897;45.438;12.128;2023-02-23T04:26:13;31.27;;;13.73;;
23449;SDS011;11897;45.438;12.128;2023-02-23T04:28:39;35.37;;;14.30;;
23449;SDS011;11897;45.438;12.128;2023-02-23T04:31:06;36.10;;;14.10;;
23449;SDS011;11897;45.438;12.128;2023-02-23T04:33:34;38.47;;;12.87;;
23449;SDS011;11897;45.438;12.128;2023-02-23T04:36:01;37.20;;;11.83;;
23449;SDS011;11897;45.438;12.128;2023-02-23T04:38:27;33.53;;;11.33;;
23449;SDS011;11897;45.438;12.128;2023-02-23T04:40:54;25.67;;;12.30;;
23449;SDS011;11897;45.438;12.128;2023-02-23T04:43:21;43.77;;;13.87;;
23449;SDS011;11897;45.438;12.128;2023-02-23T04:45:47;41.23;;;14.10;;
23449;SDS011;11897;45.438;12.128;2023-02-23T04:48:14;31.33;;;11.60;;
23449;SDS011;11897;45.438;12.128;2023-02-23T04:50:42;45.53;;;14.03;;
23449;SDS011;11897;45.438;12.128;2023-02-23T04:53:09;35.37;;;12.67;;
23449;SDS011;11897;45.438;12.128;2023-02-23T04:55:36;37.30;;;11.37;;
23449;SDS011;11897;45.438;12.128;2023-02-23T04:58:03;35.47;;;13.33;;
23449;SDS011;11897;45.438;12.128;2023-02-23T05:00:30;36.23;;;12.70;;
23449;SDS011;11897;45.438;12.128;2023-02-23T05:02:58;39.00;;;12.70;;
23449;SDS011;11897;45.438;12.128;2023-02-23T05:05:24;37.80;;;13.23;;
23449;SDS011;11897;45.438;12.128;2023-02-23T05:07:52;36.70;;;12.53;;
23449;SDS011;11897;45.438;12.128;2023-02-23T05:10:19;42.77;;;14.60;;
23449;SDS011;11897;45.438;12.128;2023-02-23T05:12:46;41.33;;;12.53;;
23449;SDS011;11897;45.438;12.128;2023-02-23T05:15:13;38.93;;;13.00;;
23449;SDS011;11897;45.438;12.128;2023-02-23T05:17:40;30.93;;;13.87;;
23449;SDS011;11897;45.438;12.128;2023-02-23T05:20:07;35.87;;;13.20;;
23449;SDS011;11897;45.438;12.128;2023-02-23T05:22:34;40.70;;;12.90;;
23449;SDS011;11897;45.438;12.128;2023-02-23T05:25:02;29.83;;;13.37;;
23449;SDS011;11897;45.438;12.128;2023-02-23T05:27:30;28.73;;;11.83;;
23449;SDS011;11897;45.438;12.128;2023-02-23T05:29:58;34.10;;;13.30;;
23449;SDS011;11897;45.438;12.128;2023-02-23T05:32:25;37.67;;;13.30;;
23449;SDS011;11897;45.438;12.128;2023-02-23T05:34:52;35.47;;;13.23;;
23449;SDS011;11897;45.438;12.128;2023-02-23T05:37:18;36.17;;;12.73;;
23449;SDS011;11897;45.438;12.128;2023-02-23T05:39:45;41.57;;;14.27;;
23449;SDS011;11897;45.438;12.128;2023-02-23T05:42:13;47.57;;;13.67;;
23449;SDS011;11897;45.438;12.128;2023-02-23T05:44:40;40.20;;;13.97;;
23449;SDS011;11897;45.438;12.128;2023-02-23T05:47:06;36.53;;;12.93;;
23449;SDS011;11897;45.438;12.128;2023-02-23T05:49:33;37.10;;;13.23;;
23449;SDS011;11897;45.438;12.128;2023-02-23T05:52:00;47.93;;;16.03;;
23449;SDS011;11897;45.438;12.128;2023-02-23T05:54:26;41.83;;;13.87;;
23449;SDS011;11897;45.438;12.128;2023-02-23T05:56:53;43.60;;;13.30;;
23449;SDS011;11897;45.438;12.128;2023-02-23T05:59:21;41.07;;;14.90;;
23449;SDS011;11897;45.438;12.128;2023-02-23T06:01:47;34.47;;;14.23;;
23449;SDS011;11897;45.438;12.128;2023-02-23T06:04:14;40.43;;;14.83;;
23449;SDS011;11897;45.438;12.128;2023-02-23T06:06:41;32.67;;;13.60;;
23449;SDS011;11897;45.438;12.128;2023-02-23T06:09:08;44.23;;;14.73;;
23449;SDS011;11897;45.438;12.128;2023-02-23T06:11:34;36.67;;;15.37;;
23449;SDS011;11897;45.438;12.128;2023-02-23T06:14:01;37.90;;;14.40;;
23449;SDS011;11897;45.438;12.128;2023-02-23T06:16:29;41.17;;;14.27;;
23449;SDS011;11897;45.438;12.128;2023-02-23T06:18:56;35.93;;;12.83;;
23449;SDS011;11897;45.438;12.128;2023-02-23T06:21:22;33.90;;;14.43;;
23449;SDS011;11897;45.438;12.128;2023-02-23T06:23:49;31.97;;;14.57;;
23449;SDS011;11897;45.438;12.128;2023-02-23T06:26:17;33.70;;;13.73;;
23449;SDS011;11897;45.438;12.128;2023-02-23T06:28:44;33.00;;;11.80;;
23449;SDS011;11897;45.438;12.128;2023-02-23T06:31:11;30.83;;;12.30;;
23449;SDS011;11897;45.438;12.128;2023-02-23T06:33:39;41.30;;;14.17;;
23449;SDS011;11897;45.438;12.128;2023-02-23T06:36:07;37.93;;;13.80;;
23449;SDS011;11897;45.438;12.128;2023-02-23T06:38:34;37.97;;;13.20;;
23449;SDS011;11897;45.438;12.128;2023-02-23T06:41:05;39.13;;;13.83;;
23449;SDS011;11897;45.438;12.128;2023-02-23T06:43:31;27.47;;;12.00;;
23449;SDS011;11897;45.438;12.128;2023-02-23T06:45:58;37.53;;;14.60;;
23449;SDS011;11897;45.438;12.128;2023-02-23T06:48:25;34.27;;;13.40;;
23449;SDS011;11897;45.438;12.128;2023-02-23T06:50:53;30.47;;;12.73;;
23449;SDS011;11897;45.438;12.128;2023-02-23T06:53:19;37.23;;;12.03;;
23449;SDS011;11897;45.438;12.128;2023-02-23T06:55:47;40.50;;;14.50;;
23449;SDS011;11897;45.438;12.128;2023-02-23T06:58:14;34.30;;;13.33;;
23449;SDS011;11897;45.438;12.128;2023-02-23T07:00:40;42.43;;;15.70;;
23449;SDS011;11897;45.438;12.128;2023-02-23T07:03:07;44.00;;;13.63;;
23449;SDS011;11897;45.438;12.128;2023-02-23T07:05:35;37.77;;;13.83;;
23449;SDS011;11897;45.438;12.128;2023-02-23T07:08:03;37.60;;;14.23;;
23449;SDS011;11897;45.438;12.128;2023-02-23T07:10:30;44.57;;;14.37;;
23449;SDS011;11897;45.438;12.128;2023-02-23T07:12:57;39.73;;;14.20;;
23449;SDS011;11897;45.438;12.128;2023-02-23T07:15:25;41.07;;;13.73;;
23449;SDS011;11897;45.438;12.128;2023-02-23T07:17:51;34.10;;;13.50;;
23449;SDS011;11897;45.438;12.128;2023-02-23T07:20:18;41.00;;;16.03;;
23449;SDS011;11897;45.438;12.128;2023-02-23T07:22:45;50.37;;;15.87;;
23449;SDS011;11897;45.438;12.128;2023-02-23T07:25:13;43.53;;;14.57;;
23449;SDS011;11897;45.438;12.128;2023-02-23T07:27:39;46.60;;;15.23;;
23449;SDS011;11897;45.438;12.128;2023-02-23T07:30:07;42.40;;;14.70;;
23449;SDS011;11897;45.438;12.128;2023-02-23T07:32:34;54.00;;;17.30;;
23449;SDS011;11897;45.438;12.128;2023-02-23T07:35:01;41.07;;;14.63;;
23449;SDS011;11897;45.438;12.128;2023-02-23T07:37:27;43.50;;;15.07;;
23449;SDS011;11897;45.438;12.128;2023-02-23T07:39:54;42.67;;;15.67;;
23449;SDS011;11897;45.438;12.128;2023-02-23T07:42:22;37.60;;;15.70;;
23449;SDS011;11897;45.438;12.128;2023-02-23T07:44:51;41.53;;;17.00;;
23449;SDS011;11897;45.438;12.128;2023-02-23T07:47:18;42.97;;;15.90;;
23449;SDS011;11897;45.438;12.128;2023-02-23T07:49:45;40.03;;;15.57;;
23449;SDS011;11897;45.438;12.128;2023-02-23T07:52:11;41.70;;;15.10;;
23449;SDS011;11897;45.438;12.128;2023-02-23T07:54:38;43.80;;;16.73;;
23449;SDS011;11897;45.438;12.128;2023-02-23T07:57:04;42.73;;;16.50;;
23449;SDS011;11897;45.438;12.128;2023-02-23T07:59:33;40.63;;;16.23;;
23449;SDS011;11897;45.438;12.128;2023-02-23T08:01:59;48.27;;;17.03;;
23449;SDS011;11897;45.438;12.128;2023-02-23T08:04:26;42.03;;;16.07;;
23449;SDS011;11897;45.438;12.128;2023-02-23T08:06:52;39.23;;;15.03;;
23449;SDS011;11897;45.438;12.128;2023-02-23T08:09:20;49.70;;;17.27;;
23449;SDS011;11897;45.438;12.128;2023-02-23T08:11:47;38.83;;;14.50;;
23449;SDS011;11897;45.438;12.128;2023-02-23T08:14:13;35.47;;;16.90;;
23449;SDS011;11897;45.438;12.128;2023-02-23T08:16:41;45.60;;;16.97;;
23449;SDS011;11897;45.438;12.128;2023-02-23T08:19:08;42.07;;;16.67;;
23449;SDS011;11897;45.438;12.128;2023-02-23T08:21:35;45.87;;;16.87;;
23449;SDS011;11897;45.438;12.128;2023-02-23T08:24:01;47.10;;;16.30;;
23449;SDS011;11897;45.438;12.128;2023-02-23T08:26:28;39.73;;;15.73;;
23449;SDS011;11897;45.438;12.128;2023-02-23T08:28:55;43.90;;;15.27;;
23449;SDS011;11897;45.438;12.128;2023-02-23T08:31:22;44.87;;;17.07;;
23449;SDS011;11897;45.438;12.128;2023-02-23T08:33:50;46.53;;;16.70;;
23449;SDS011;11897;45.438;12.128;2023-02-23T08:36:17;50.83;;;17.20;;
23449;SDS011;11897;45.438;12.128;2023-02-23T08:38:44;50.53;;;16.73;;
23449;SDS011;11897;45.438;12.128;2023-02-23T08:41:11;48.33;;;16.13;;
23449;SDS011;11897;45.438;12.128;2023-02-23T08:43:38;44.43;;;16.70;;
23449;SDS011;11897;45.438;12.128;2023-02-23T08:46:04;40.47;;;17.93;;
23449;SDS011;11897;45.438;12.128;2023-02-23T08:48:31;43.67;;;17.23;;
23449;SDS011;11897;45.438;12.128;2023-02-23T08:50:59;46.63;;;16.43;;
23449;SDS011;11897;45.438;12.128;2023-02-23T08:53:26;37.53;;;16.27;;
23449;SDS011;11897;45.438;12.128;2023-02-23T08:55:54;52.50;;;18.33;;
23449;SDS011;11897;45.438;12.128;2023-02-23T08:58:21;46.30;;;16.03;;
23449;SDS011;11897;45.438;12.128;2023-02-23T09:00:48;39.17;;;15.07;;
23449;SDS011;11897;45.438;12.128;2023-02-23T09:03:14;47.20;;;16.73;;
23449;SDS011;11897;45.438;12.128;2023-02-23T09:05:41;46.57;;;17.60;;
23449;SDS011;11897;45.438;12.128;2023-02-23T09:08:10;43.63;;;16.57;;
23449;SDS011;11897;45.438;12.128;2023-02-23T09:10:37;44.17;;;15.77;;
23449;SDS011;11897;45.438;12.128;2023-02-23T09:13:04;48.53;;;16.73;;
23449;SDS011;11897;45.438;12.128;2023-02-23T09:15:31;39.43;;;14.30;;
23449;SDS011;11897;45.438;12.128;2023-02-23T09:17:58;33.97;;;15.60;;
23449;SDS011;11897;45.438;12.128;2023-02-23T09:20:25;44.60;;;16.00;;
23449;SDS011;11897;45.438;12.128;2023-02-23T09:22:51;41.37;;;15.97;;
23449;SDS011;11897;45.438;12.128;2023-02-23T09:25:20;44.43;;;15.10;;
23449;SDS011;11897;45.438;12.128;2023-02-23T09:27:47;44.50;;;14.60;;
23449;SDS011;11897;45.438;12.128;2023-02-23T09:30:14;44.47;;;15.73;;
23449;SDS011;11897;45.438;12.128;2023-02-23T09:32:42;37.60;;;14.33;;
23449;SDS011;11897;45.438;12.128;2023-02-23T09:35:09;43.40;;;14.23;;
23449;SDS011;11897;45.438;12.128;2023-02-23T09:37:35;38.27;;;14.13;;
23449;SDS011;11897;45.438;12.128;2023-02-23T09:40:02;40.53;;;15.17;;
23449;SDS011;11897;45.438;12.128;2023-02-23T09:42:35;33.23;;;14.47;;
23449;SDS011;11897;45.438;12.128;2023-02-23T09:45:04;36.60;;;14.03;;
23449;SDS011;11897;45.438;12.128;2023-02-23T09:47:35;33.70;;;13.00;;
23449;SDS011;11897;45.438;12.128;2023-02-23T09:50:16;39.17;;;14.60;;
23449;SDS011;11897;45.438;12.128;2023-02-23T09:52:45;39.00;;;14.27;;
23449;SDS011;11897;45.438;12.128;2023-02-23T09:55:13;32.07;;;12.87;;
23449;SDS011;11897;45.438;12.128;2023-02-23T09:57:43;28.70;;;12.10;;
23449;SDS011;11897;45.438;12.128;2023-02-23T10:00:12;35.03;;;11.27;;
23449;SDS011;11897;45.438;12.128;2023-02-23T10:02:44;40.57;;;13.43;;
23449;SDS011;11897;45.438;12.128;2023-02-23T10:05:15;35.17;;;12.30;;
23449;SDS011;11897;45.438;12.128;2023-02-23T10:07:42;34.27;;;13.03;;
23449;SDS011;11897;45.438;12.128;2023-02-23T10:10:15;36.23;;;15.03;;
23449;SDS011;11897;45.438;12.128;2023-02-23T10:12:46;37.30;;;12.63;;
23449;SDS011;11897;45.438;12.128;2023-02-23T10:15:18;38.80;;;14.23;;
23449;SDS011;11897;45.438;12.128;2023-02-23T10:17:53;42.10;;;13.20;;
23449;SDS011;11897;45.438;12.128;2023-02-23T10:20:22;36.17;;;14.07;;
23449;SDS011;11897;45.438;12.128;2023-02-23T10:22:51;38.90;;;13.23;;
23449;SDS011;11897;45.438;12.128;2023-02-23T10:25:20;33.70;;;12.13;;
23449;SDS011;11897;45.438;12.128;2023-02-23T10:27:51;34.53;;;12.47;;
23449;SDS011;11897;45.438;12.128;2023-02-23T10:30:20;34.33;;;12.80;;
23449;SDS011;11897;45.438;12.128;2023-02-23T10:32:49;35.57;;;13.07;;
23449;SDS011;11897;45.438;12.128;2023-02-23T10:35:20;35.93;;;13.50;;
23449;SDS011;11897;45.438;12.128;2023-02-23T10:37:47;32.53;;;11.30;;
23449;SDS011;11897;45.438;12.128;2023-02-23T10:40:14;34.47;;;11.50;;
23449;SDS011;11897;45.438;12.128;2023-02-23T10:42:41;36.97;;;13.57;;
23449;SDS011;11897;45.438;12.128;2023-02-23T10:45:13;31.83;;;12.50;;
23449;SDS011;11897;45.438;12.128;2023-02-23T10:47:43;32.60;;;11.77;;
23449;SDS011;11897;45.438;12.128;2023-02-23T10:50:10;34.87;;;12.27;;
23449;SDS011;11897;45.438;12.128;2023-02-23T10:52:40;40.40;;;14.93;;
23449;SDS011;11897;45.438;12.128;2023-02-23T10:55:09;40.80;;;14.93;;
23449;SDS011;11897;45.438;12.128;2023-02-23T10:57:46;35.33;;;13.10;;
23449;SDS011;11897;45.438;12.128;2023-02-23T11:00:25;33.73;;;12.70;;
23449;SDS011;11897;45.438;12.128;2023-02-23T11:02:55;35.37;;;14.10;;
23449;SDS011;11897;45.438;12.128;2023-02-23T11:05:27;35.53;;;12.77;;
23449;SDS011;11897;45.438;12.128;2023-02-23T11:08:07;39.17;;;14.37;;
23449;SDS011;11897;45.438;12.128;2023-02-23T11:10:34;33.40;;;11.90;;
23449;SDS011;11897;45.438;12.128;2023-02-23T11:13:01;37.47;;;12.80;;
23449;SDS011;11897;45.438;12.128;2023-02-23T11:15:29;33.83;;;12.97;;
23449;SDS011;11897;45.438;12.128;2023-02-23T11:17:56;36.07;;;13.50;;
23449;SDS011;11897;45.438;12.128;2023-02-23T11:20:25;38.53;;;12.87;;
23449;SDS011;11897;45.438;12.128;2023-02-23T11:22:53;44.40;;;15.07;;
23449;SDS011;11897;45.438;12.128;2023-02-23T11:25:24;44.53;;;14.53;;
23449;SDS011;11897;45.438;12.128;2023-02-23T11:27:51;41.73;;;12.37;;
23449;SDS011;11897;45.438;12.128;2023-02-23T11:30:21;42.10;;;12.90;;
23449;SDS011;11897;45.438;12.128;2023-02-23T11:32:51;37.57;;;13.03;;
23449;SDS011;11897;45.438;12.128;2023-02-23T11:35:25;37.33;;;14.07;;
23449;SDS011;11897;45.438;12.128;2023-02-23T11:37:53;32.73;;;13.23;;
23449;SDS011;11897;45.438;12.128;2023-02-23T11:40:21;39.40;;;12.63;;
23449;SDS011;11897;45.438;12.128;2023-02-23T11:42:50;34.20;;;11.47;;
23449;SDS011;11897;45.438;12.128;2023-02-23T11:45:18;46.50;;;14.67;;
23449;SDS011;11897;45.438;12.128;2023-02-23T11:47:46;39.27;;;13.73;;
23449;SDS011;11897;45.438;12.128;2023-02-23T11:50:20;38.37;;;13.83;;
23449;SDS011;11897;45.438;12.128;2023-02-23T11:52:48;42.07;;;14.63;;
23449;SDS011;11897;45.438;12.128;2023-02-23T11:55:18;36.93;;;12.90;;
23449;SDS011;11897;45.438;12.128;2023-02-23T11:57:45;46.23;;;14.63;;
23449;SDS011;11897;45.438;12.128;2023-02-23T12:00:20;31.80;;;12.83;;
23449;SDS011;11897;45.438;12.128;2023-02-23T12:02:48;36.63;;;12.67;;
23449;SDS011;11897;45.438;12.128;2023-02-23T12:05:16;29.63;;;11.30;;
23449;SDS011;11897;45.438;12.128;2023-02-23T12:07:46;32.70;;;12.17;;
23449;SDS011;11897;45.438;12.128;2023-02-23T12:10:18;29.57;;;12.43;;
23449;SDS011;11897;45.438;12.128;2023-02-23T12:12:48;35.43;;;11.87;;
23449;SDS011;11897;45.438;12.128;2023-02-23T12:15:19;40.40;;;12.83;;
23449;SDS011;11897;45.438;12.128;2023-02-23T12:17:48;36.53;;;12.13;;
23449;SDS011;11897;45.438;12.128;2023-02-23T12:20:17;32.87;;;13.20;;
23449;SDS011;11897;45.438;12.128;2023-02-23T12:22:48;44.30;;;15.97;;
23449;SDS011;11897;45.438;12.128;2023-02-23T12:25:19;39.57;;;13.57;;
23449;SDS011;11897;45.438;12.128;2023-02-23T12:27:47;35.10;;;11.30;;
23449;SDS011;11897;45.438;12.128;2023-02-23T12:30:19;33.23;;;13.30;;
23449;SDS011;11897;45.438;12.128;2023-02-23T12:32:48;25.87;;;10.03;;
23449;SDS011;11897;45.438;12.128;2023-02-23T12:35:18;37.93;;;13.73;;
23449;SDS011;11897;45.438;12.128;2023-02-23T12:37:48;33.57;;;12.23;;
23449;SDS011;11897;45.438;12.128;2023-02-23T12:40:19;33.60;;;12.07;;
23449;SDS011;11897;45.438;12.128;2023-02-23T12:42:49;41.43;;;12.77;;
23449;SDS011;11897;45.438;12.128;2023-02-23T12:45:20;36.27;;;12.47;;
23449;SDS011;11897;45.438;12.128;2023-02-23T12:47:49;36.03;;;11.93;;
23449;SDS011;11897;45.438;12.128;2023-02-23T12:50:17;31.50;;;12.37;;
23449;SDS011;11897;45.438;12.128;2023-02-23T12:52:46;33.80;;;12.93;;
23449;SDS011;11897;45.438;12.128;2023-02-23T12:55:16;41.13;;;12.57;;
23449;SDS011;11897;45.438;12.128;2023-02-23T12:57:47;39.73;;;13.07;;
23449;SDS011;11897;45.438;12.128;2023-02-23T13:00:21;37.13;;;11.63;;
23449;SDS011;11897;45.438;12.128;2023-02-23T13:03:02;33.57;;;11.30;;
23449;SDS011;11897;45.438;12.128;2023-02-23T13:05:35;32.27;;;12.60;;
23449;SDS011;11897;45.438;12.128;2023-02-23T13:08:08;29.83;;;10.60;;
23449;SDS011;11897;45.438;12.128;2023-02-23T13:10:41;27.57;;;11.57;;
23449;SDS011;11897;45.438;12.128;2023-02-23T13:13:14;29.33;;;10.97;;
23449;SDS011;11897;45.438;12.128;2023-02-23T13:15:45;34.07;;;12.23;;
23449;SDS011;11897;45.438;12.128;2023-02-23T13:18:14;32.17;;;12.13;;
23449;SDS011;11897;45.438;12.128;2023-02-23T13:20:46;27.40;;;11.60;;
23449;SDS011;11897;45.438;12.128;2023-02-23T13:23:15;29.87;;;12.30;;
23449;SDS011;11897;45.438;12.128;2023-02-23T13:25:48;34.67;;;9.97;;
23449;SDS011;11897;45.438;12.128;2023-02-23T13:28:17;30.07;;;11.07;;
23449;SDS011;11897;45.438;12.128;2023-02-23T13:30:46;35.37;;;10.90;;
23449;SDS011;11897;45.438;12.128;2023-02-23T13:33:23;31.70;;;11.70;;
23449;SDS011;11897;45.438;12.128;2023-02-23T13:35:50;38.17;;;12.30;;
23449;SDS011;11897;45.438;12.128;2023-02-23T13:38:18;33.40;;;12.17;;
23449;SDS011;11897;45.438;12.128;2023-02-23T13:40:50;37.47;;;11.27;;
23449;SDS011;11897;45.438;12.128;2023-02-23T13:43:20;33.80;;;11.30;;
23449;SDS011;11897;45.438;12.128;2023-02-23T13:45:55;28.97;;;11.33;;
23449;SDS011;11897;45.438;12.128;2023-02-23T13:48:28;32.20;;;11.30;;
23449;SDS011;11897;45.438;12.128;2023-02-23T13:50:57;33.37;;;11.70;;
23449;SDS011;11897;45.438;12.128;2023-02-23T13:56:15;25.70;;;11.17;;
23449;SDS011;11897;45.438;12.128;2023-02-23T13:58:44;31.57;;;12.50;;
23449;SDS011;11897;45.438;12.128;2023-02-23T14:01:13;31.37;;;11.57;;
23449;SDS011;11897;45.438;12.128;2023-02-23T14:03:44;31.37;;;12.40;;
23449;SDS011;11897;45.438;12.128;2023-02-23T14:06:13;32.13;;;11.97;;
23449;SDS011;11897;45.438;12.128;2023-02-23T14:08:40;24.50;;;11.90;;
23449;SDS011;11897;45.438;12.128;2023-02-23T14:11:08;31.13;;;12.50;;
23449;SDS011;11897;45.438;12.128;2023-02-23T14:13:39;27.00;;;11.27;;
23449;SDS011;11897;45.438;12.128;2023-02-23T14:16:11;27.80;;;11.47;;
23449;SDS011;11897;45.438;12.128;2023-02-23T14:18:55;38.97;;;12.70;;
23449;SDS011;11897;45.438;12.128;2023-02-23T14:21:29;32.03;;;13.00;;
23449;SDS011;11897;45.438;12.128;2023-02-23T14:29:29;30.00;;;11.43;;
23449;SDS011;11897;45.438;12.128;2023-02-23T14:32:01;30.80;;;10.83;;
23449;SDS011;11897;45.438;12.128;2023-02-23T14:34:42;31.47;;;12.17;;
23449;SDS011;11897;45.438;12.128;2023-02-23T14:37:22;31.67;;;11.17;;
23449;SDS011;11897;45.438;12.128;2023-02-23T14:39:50;34.40;;;12.40;;
23449;SDS011;11897;45.438;12.128;2023-02-23T14:42:20;36.17;;;10.70;;
23449;SDS011;11897;45.438;12.128;2023-02-23T14:44:48;31.70;;;11.53;;